createdAt,value
2023-02-04T00:01:34.252Z,10.10
2023-02-04T00:04:01.226Z,10.10
2023-02-04T00:06:28.961Z,10.10
2023-02-04T00:08:55.827Z,10.10
2023-02-04T00:11:24.000Z,10.10
2023-02-04T00:13:50.872Z,10.10
2023-02-04T00:16:17.780Z,10.10
2023-02-04T00:18:44.707Z,10.10
2023-02-04T00:21:11.574Z,10.10
2023-02-04T00:23:38.579Z,10.10
2023-02-04T00:26:05.725Z,10.10
2023-02-04T00:28:34.351Z,10.00
2023-02-04T00:31:01.189Z,10.00
2023-02-04T00:33:28.980Z,10.00
2023-02-04T00:35:56.270Z,10.00
2023-02-04T00:38:23.081Z,10.00
2023-02-04T00:40:49.970Z,10.00
2023-02-04T00:43:16.806Z,10.00
2023-02-04T00:45:45.606Z,10.00
2023-02-04T00:48:12.596Z,10.00
2023-02-04T00:50:39.795Z,10.10
2023-02-04T00:53:07.115Z,10.00
2023-02-04T00:55:34.035Z,10.00
2023-02-04T00:58:00.908Z,10.10
2023-02-04T01:00:27.901Z,10.10
2023-02-04T01:02:56.304Z,10.10
2023-02-04T01:05:23.169Z,10.10
2023-02-04T01:07:50.122Z,10.10
2023-02-04T01:10:17.933Z,10.00
2023-02-04T01:12:45.088Z,10.00
2023-02-04T01:15:12.191Z,10.00
2023-02-04T01:17:40.016Z,10.00
2023-02-04T01:20:09.253Z,10.00
2023-02-04T01:22:36.205Z,10.00
2023-02-04T01:25:03.104Z,10.00
2023-02-04T01:27:30.212Z,10.00
2023-02-04T01:29:57.055Z,9.90
2023-02-04T01:32:23.925Z,9.90
2023-02-04T01:34:50.760Z,9.90
2023-02-04T01:37:19.062Z,9.90
2023-02-04T01:39:45.984Z,9.90
2023-02-04T01:42:12.951Z,9.80
2023-02-04T01:44:40.209Z,9.80
2023-02-04T01:47:07.207Z,9.80
2023-02-04T01:49:34.185Z,9.80
2023-02-04T01:52:02.152Z,9.80
2023-02-04T01:54:30.838Z,9.70
2023-02-04T01:56:57.672Z,9.80
2023-02-04T01:59:24.689Z,9.80
2023-02-04T02:01:53.235Z,9.80
2023-02-04T02:04:25.098Z,9.80
2023-02-04T02:06:55.341Z,9.80
2023-02-04T02:09:22.249Z,9.80
2023-02-04T02:11:50.551Z,9.80
2023-02-04T02:14:17.413Z,9.80
2023-02-04T02:16:44.285Z,9.80
2023-02-04T02:19:15.220Z,9.80
2023-02-04T02:21:48.015Z,9.70
2023-02-04T02:24:30.858Z,9.70
2023-02-04T02:27:01.712Z,9.70
2023-02-04T02:29:29.300Z,9.70
2023-02-04T02:32:00.214Z,9.70
2023-02-04T02:34:28.594Z,9.70
2023-02-04T02:36:55.832Z,9.70
2023-02-04T02:39:22.866Z,9.70
2023-02-04T02:41:51.198Z,9.70
2023-02-04T02:44:18.956Z,9.60
2023-02-04T02:46:46.396Z,9.60
2023-02-04T02:49:15.776Z,9.60
2023-02-04T02:51:42.879Z,9.60
2023-02-04T02:54:19.215Z,9.60
2023-02-04T02:56:46.058Z,9.60
2023-02-04T02:59:15.644Z,9.60
2023-02-04T03:01:43.411Z,9.60
2023-02-04T03:04:11.296Z,9.60
2023-02-04T03:06:38.935Z,9.60
2023-02-04T03:09:05.797Z,9.60
2023-02-04T03:11:32.723Z,9.50
2023-02-04T03:14:03.719Z,9.40
2023-02-04T03:16:34.064Z,9.40
2023-02-04T03:19:01.713Z,9.30
2023-02-04T03:21:29.066Z,9.30
2023-02-04T03:23:56.815Z,9.20
2023-02-04T03:26:24.044Z,9.20
2023-02-04T03:28:50.993Z,9.20
2023-02-04T03:31:17.975Z,9.20
2023-02-04T03:33:46.339Z,9.20
2023-02-04T03:36:13.326Z,9.10
2023-02-04T03:38:40.276Z,9.10
2023-02-04T03:41:07.994Z,9.10
2023-02-04T03:43:35.062Z,9.10
2023-02-04T03:46:01.969Z,9.00
2023-02-04T03:48:28.863Z,9.00
2023-02-04T03:50:57.175Z,9.00
2023-02-04T03:53:24.418Z,9.10
2023-02-04T03:55:51.232Z,9.00
2023-02-04T03:58:18.030Z,9.00
2023-02-04T04:00:44.839Z,9.00
2023-02-04T04:03:11.707Z,9.00
2023-02-04T04:05:38.700Z,9.00
2023-02-04T04:08:07.041Z,9.00
2023-02-04T04:10:34.176Z,9.00
2023-02-04T04:13:01.165Z,9.00
2023-02-04T04:15:28.120Z,8.90
2023-02-04T04:17:54.976Z,8.90
2023-02-04T04:20:25.431Z,8.90
2023-02-04T04:22:52.338Z,8.90
2023-02-04T04:25:20.911Z,8.90
2023-02-04T04:27:47.853Z,8.90
2023-02-04T04:30:14.810Z,8.90
2023-02-04T04:32:41.641Z,8.90
2023-02-04T04:35:08.954Z,8.90
2023-02-04T04:37:35.780Z,8.90
2023-02-04T04:40:02.764Z,8.90
2023-02-04T04:42:30.910Z,8.90
2023-02-04T04:44:57.717Z,8.80
2023-02-04T04:47:24.591Z,8.80
2023-02-04T04:49:51.464Z,8.80
2023-02-04T04:52:18.254Z,8.80
2023-02-04T04:54:45.133Z,8.70
2023-02-04T04:57:12.088Z,8.70
2023-02-04T04:59:40.228Z,8.70
2023-02-04T05:02:07.075Z,8.70
2023-02-04T05:04:33.937Z,8.70
2023-02-04T05:07:00.867Z,8.70
2023-02-04T05:09:27.742Z,8.70
2023-02-04T05:11:54.554Z,8.70
2023-02-04T05:14:21.436Z,8.70
2023-02-04T05:16:49.619Z,8.70
2023-02-04T05:19:16.541Z,8.70
2023-02-04T05:21:43.438Z,8.80
2023-02-04T05:24:10.314Z,8.70
2023-02-04T05:26:37.161Z,8.70
2023-02-04T05:29:04.095Z,8.70
2023-02-04T05:31:31.152Z,8.70
2023-02-04T05:33:59.304Z,8.60
2023-02-04T05:36:26.186Z,8.70
2023-02-04T05:38:52.978Z,8.50
2023-02-04T05:41:19.875Z,8.60
2023-02-04T05:43:46.725Z,8.60
2023-02-04T05:46:13.555Z,8.60
2023-02-04T05:48:40.415Z,8.60
2023-02-04T05:51:08.574Z,8.60
2023-02-04T05:53:35.696Z,8.60
2023-02-04T05:56:02.927Z,8.60
2023-02-04T05:58:33.383Z,8.60
2023-02-04T06:01:01.372Z,8.60
2023-02-04T06:03:29.539Z,8.60
2023-02-04T06:05:56.720Z,8.60
2023-02-04T06:08:24.972Z,8.60
2023-02-04T06:10:51.952Z,8.60
2023-02-04T06:13:18.825Z,8.70
2023-02-04T06:15:45.781Z,8.60
2023-02-04T06:18:12.622Z,8.60
2023-02-04T06:20:39.415Z,8.60
2023-02-04T06:23:06.268Z,8.60
2023-02-04T06:25:34.455Z,8.60
2023-02-04T06:28:01.373Z,8.60
2023-02-04T06:30:28.408Z,8.60
2023-02-04T06:32:55.262Z,8.60
2023-02-04T06:35:22.145Z,8.40
2023-02-04T06:37:49.069Z,8.70
2023-02-04T06:40:16.343Z,8.70
2023-02-04T06:42:44.528Z,8.70
2023-02-04T06:45:11.388Z,8.70
2023-02-04T06:47:38.223Z,8.70
2023-02-04T06:50:05.381Z,8.80
2023-02-04T06:52:32.204Z,8.80
2023-02-04T06:54:59.068Z,8.80
2023-02-04T06:57:25.865Z,8.80
2023-02-04T06:59:54.034Z,8.80
2023-02-04T07:02:20.866Z,8.80
2023-02-04T07:04:49.239Z,8.90
2023-02-04T07:07:16.123Z,8.80
2023-02-04T07:09:43.051Z,8.80
2023-02-04T07:12:09.971Z,8.80
2023-02-04T07:14:36.842Z,8.80
2023-02-04T07:17:05.190Z,8.80
2023-02-04T07:19:32.168Z,8.80
2023-02-04T07:21:59.044Z,8.80
2023-02-04T07:24:25.975Z,8.80
2023-02-04T07:26:52.831Z,8.80
2023-02-04T07:29:25.193Z,8.90
2023-02-04T07:31:53.157Z,8.90
2023-02-04T07:34:21.598Z,8.90
2023-02-04T07:36:48.598Z,8.90
2023-02-04T07:39:15.556Z,8.90
2023-02-04T07:41:42.477Z,8.90
2023-02-04T07:44:09.316Z,8.90
2023-02-04T07:46:36.327Z,8.90
2023-02-04T07:49:03.155Z,8.90
2023-02-04T07:51:31.294Z,9.00
2023-02-04T07:53:58.137Z,9.00
2023-02-04T07:56:24.979Z,9.10
2023-02-04T07:58:52.055Z,9.20
2023-02-04T08:01:18.955Z,9.50
2023-02-04T08:03:45.749Z,9.90
2023-02-04T08:06:12.633Z,10.40
2023-02-04T08:08:40.929Z,11.00
2023-02-04T08:11:07.894Z,11.50
2023-02-04T08:13:34.793Z,11.80
2023-02-04T08:16:01.828Z,12.00
2023-02-04T08:18:28.977Z,12.00
2023-02-04T08:20:55.824Z,12.00
2023-02-04T08:23:23.131Z,11.90
2023-02-04T08:25:51.330Z,11.80
2023-02-04T08:28:18.380Z,11.70
2023-02-04T08:30:45.311Z,11.60
2023-02-04T08:33:12.221Z,11.40
2023-02-04T08:35:39.458Z,11.30
2023-02-04T08:38:06.328Z,11.20
2023-02-04T08:40:33.657Z,11.10
2023-02-04T08:43:02.102Z,11.00
2023-02-04T08:45:28.996Z,10.90
2023-02-04T08:47:56.413Z,10.90
2023-02-04T08:50:23.702Z,10.80
2023-02-04T08:52:50.545Z,10.80
2023-02-04T08:55:17.455Z,10.80
2023-02-04T08:57:44.408Z,10.80
2023-02-04T09:00:14.111Z,10.80
2023-02-04T09:02:40.976Z,10.90
2023-02-04T09:05:08.233Z,10.90
2023-02-04T09:07:35.169Z,10.90
2023-02-04T09:10:02.001Z,10.90
2023-02-04T09:12:28.814Z,11.00
2023-02-04T09:14:55.765Z,11.00
2023-02-04T09:17:24.036Z,11.00
2023-02-04T09:19:50.957Z,10.90
2023-02-04T09:22:18.040Z,10.70
2023-02-04T09:24:44.873Z,10.60
2023-02-04T09:27:11.753Z,10.60
2023-02-04T09:29:38.615Z,10.60
2023-02-04T09:32:05.647Z,10.70
2023-02-04T09:34:33.965Z,10.80
2023-02-04T09:37:00.794Z,11.00
2023-02-04T09:39:29.186Z,11.10
2023-02-04T09:41:56.369Z,11.10
2023-02-04T09:44:26.566Z,11.20
2023-02-04T09:46:55.711Z,11.40
2023-02-04T09:49:23.208Z,11.50
2023-02-04T09:51:52.426Z,11.70
2023-02-04T09:54:21.701Z,11.80
2023-02-04T09:56:49.163Z,11.90
2023-02-04T09:59:19.845Z,11.90
2023-02-04T10:01:48.568Z,12.00
2023-02-04T10:04:15.705Z,12.10
2023-02-04T10:06:44.012Z,12.10
2023-02-04T10:09:14.743Z,12.00
2023-02-04T10:11:42.870Z,12.00
2023-02-04T10:14:15.003Z,12.00
2023-02-04T10:16:43.583Z,12.00
2023-02-04T10:19:14.955Z,12.00
2023-02-04T10:21:44.026Z,12.00
2023-02-04T10:24:15.908Z,12.10
2023-02-04T10:26:43.088Z,12.10
2023-02-04T10:29:15.445Z,12.20
2023-02-04T10:31:44.406Z,12.20
2023-02-04T10:34:14.719Z,12.20
2023-02-04T10:36:43.552Z,12.10
2023-02-04T10:39:15.119Z,12.10
2023-02-04T10:41:49.906Z,12.30
2023-02-04T10:44:19.074Z,12.50
2023-02-04T10:46:45.984Z,12.50
2023-02-04T10:49:19.531Z,12.40
2023-02-04T10:51:48.197Z,12.40
2023-02-04T10:54:32.499Z,12.30
2023-02-04T10:57:05.377Z,12.20
2023-02-04T10:59:32.564Z,12.10
2023-02-04T11:02:02.676Z,12.10
2023-02-04T11:04:29.565Z,12.10
2023-02-04T11:06:56.492Z,12.10
2023-02-04T11:09:24.760Z,12.20
2023-02-04T11:11:52.044Z,12.30
2023-02-04T11:14:24.670Z,12.30
2023-02-04T11:16:52.010Z,12.50
2023-02-04T11:19:32.818Z,12.70
2023-02-04T11:22:07.592Z,13.00
2023-02-04T11:24:35.795Z,13.20
2023-02-04T11:27:08.019Z,13.40
2023-02-04T11:29:38.740Z,13.50
2023-02-04T11:32:07.513Z,13.50
2023-02-04T11:34:49.315Z,13.60
2023-02-04T11:37:34.258Z,13.70
2023-02-04T11:40:20.188Z,13.70
2023-02-04T11:42:48.307Z,13.30
2023-02-04T11:45:17.962Z,13.00
2023-02-04T11:47:44.981Z,12.70
2023-02-04T11:50:16.027Z,12.50
2023-02-04T11:52:42.939Z,12.40
2023-02-04T11:55:12.912Z,12.30
2023-02-04T11:57:40.414Z,12.30
2023-02-04T12:00:14.579Z,12.20
2023-02-04T12:02:45.298Z,12.20
2023-02-04T12:05:14.301Z,12.00
2023-02-04T12:07:41.527Z,11.80
2023-02-04T12:10:14.950Z,11.70
2023-02-04T12:12:44.457Z,11.50
2023-02-04T12:15:15.761Z,11.40
2023-02-04T12:17:44.783Z,11.30
2023-02-04T12:20:13.002Z,11.30
2023-02-04T12:22:40.036Z,11.30
2023-02-04T12:25:07.962Z,11.30
2023-02-04T12:27:36.142Z,11.30
2023-02-04T12:30:03.149Z,11.20
2023-02-04T12:32:30.039Z,11.20
2023-02-04T12:34:56.892Z,11.20
2023-02-04T12:37:24.113Z,11.20
2023-02-04T12:39:51.287Z,11.20
2023-02-04T12:42:18.171Z,11.20
2023-02-04T12:44:46.419Z,11.30
2023-02-04T12:47:13.204Z,11.30
2023-02-04T12:49:40.054Z,11.30
2023-02-04T12:52:07.004Z,11.30
2023-02-04T12:54:33.919Z,11.40
2023-02-04T12:57:02.695Z,11.40
2023-02-04T12:59:31.483Z,11.50
2023-02-04T13:02:00.307Z,11.50
2023-02-04T13:04:28.148Z,11.50
2023-02-04T13:06:55.261Z,11.50
2023-02-04T13:09:22.352Z,11.40
2023-02-04T13:11:49.371Z,11.40
2023-02-04T13:14:16.273Z,11.30
2023-02-04T13:16:43.074Z,11.40
2023-02-04T13:19:11.308Z,11.40
2023-02-04T13:21:38.238Z,11.40
2023-02-04T13:24:05.372Z,11.30
2023-02-04T13:26:32.304Z,11.20
2023-02-04T13:28:59.144Z,11.20
2023-02-04T13:31:26.125Z,11.20
2023-02-04T13:33:53.007Z,11.20
2023-02-04T13:36:21.242Z,11.10
2023-02-04T13:38:48.032Z,11.10
2023-02-04T13:41:14.872Z,11.00
2023-02-04T13:43:41.717Z,10.90
2023-02-04T13:46:08.599Z,10.90
2023-02-04T13:48:36.663Z,10.80
2023-02-04T13:51:03.901Z,10.80
2023-02-04T13:53:32.104Z,10.70
2023-02-04T13:55:59.218Z,10.70
2023-02-04T13:58:26.110Z,10.80
2023-02-04T14:00:57.268Z,10.90
2023-02-04T14:03:24.661Z,10.90
2023-02-04T14:05:51.672Z,11.00
2023-02-04T14:08:19.230Z,11.10
2023-02-04T14:10:48.024Z,11.20
2023-02-04T14:13:14.972Z,11.30
2023-02-04T14:15:42.046Z,11.30
2023-02-04T14:18:09.975Z,11.40
2023-02-04T14:20:37.312Z,11.40
2023-02-04T14:23:05.436Z,11.50
2023-02-04T14:25:32.945Z,11.50
2023-02-04T14:28:02.388Z,11.50
2023-02-04T14:30:30.057Z,11.50
2023-02-04T14:32:57.418Z,11.50
2023-02-04T14:35:25.772Z,11.40
2023-02-04T14:37:53.081Z,11.40
2023-02-04T14:40:20.159Z,11.30
2023-02-04T14:42:47.462Z,11.20
2023-02-04T14:45:16.158Z,11.20
2023-02-04T14:47:43.364Z,11.20
2023-02-04T14:50:13.438Z,11.30
2023-02-04T14:52:40.400Z,11.20
2023-02-04T14:55:10.477Z,11.20
2023-02-04T14:57:37.352Z,11.10
2023-02-04T15:00:05.551Z,11.10
2023-02-04T15:02:34.172Z,11.10
2023-02-04T15:05:01.361Z,11.00
2023-02-04T15:07:28.503Z,11.00
2023-02-04T15:09:55.330Z,11.00
2023-02-04T15:12:22.687Z,11.00
2023-02-04T15:14:49.597Z,10.90
2023-02-04T15:17:16.577Z,10.90
2023-02-04T15:19:45.194Z,10.90
2023-02-04T15:22:12.710Z,10.80
2023-02-04T15:24:39.992Z,10.80
2023-02-04T15:27:06.925Z,10.80
2023-02-04T15:29:33.844Z,10.70
2023-02-04T15:32:00.754Z,10.70
2023-02-04T15:34:27.693Z,10.70
2023-02-04T15:36:56.116Z,10.60
2023-02-04T15:39:23.049Z,10.60
2023-02-04T15:41:49.934Z,10.60
2023-02-04T15:44:16.807Z,10.50
2023-02-04T15:46:43.826Z,10.50
2023-02-04T15:49:10.744Z,10.50
2023-02-04T15:51:37.584Z,10.40
2023-02-04T15:54:05.820Z,10.40
2023-02-04T15:56:32.718Z,10.40
2023-02-04T15:59:02.053Z,10.30
2023-02-04T16:01:29.274Z,10.30
2023-02-04T16:03:56.906Z,10.20
2023-02-04T16:06:23.842Z,10.20
2023-02-04T16:08:50.934Z,10.10
2023-02-04T16:11:19.253Z,10.10
2023-02-04T16:13:46.143Z,10.10
2023-02-04T16:16:13.087Z,10.10
2023-02-04T16:18:40.194Z,10.00
2023-02-04T16:21:07.100Z,10.00
2023-02-04T16:23:34.259Z,10.00
2023-02-04T16:26:01.141Z,9.90
2023-02-04T16:28:29.565Z,9.90
2023-02-04T16:30:56.508Z,9.90
2023-02-04T16:33:24.626Z,9.90
2023-02-04T16:35:59.883Z,9.80
2023-02-04T16:38:27.163Z,9.80
2023-02-04T16:40:54.095Z,9.80
2023-02-04T16:43:21.655Z,9.70
2023-02-04T16:45:49.947Z,9.70
2023-02-04T16:48:17.387Z,9.70
2023-02-04T16:50:44.277Z,9.60
2023-02-04T16:53:14.994Z,9.60
2023-02-04T16:55:42.816Z,9.50
2023-02-04T16:58:09.837Z,9.60
2023-02-04T17:00:38.757Z,9.60
2023-02-04T17:03:07.225Z,9.60
2023-02-04T17:05:34.484Z,9.70
2023-02-04T17:08:01.414Z,9.70
2023-02-04T17:10:47.945Z,9.70
2023-02-04T17:13:14.721Z,9.70
2023-02-04T17:15:41.620Z,9.60
2023-02-04T17:18:09.864Z,9.60
2023-02-04T17:20:36.773Z,9.60
2023-02-04T17:23:03.723Z,9.60
2023-02-04T17:25:30.880Z,9.50
2023-02-04T17:27:57.881Z,9.50
2023-02-04T17:30:24.867Z,9.50
2023-02-04T17:32:51.832Z,9.40
2023-02-04T17:35:19.980Z,9.40
2023-02-04T17:37:46.919Z,9.40
2023-02-04T17:40:13.750Z,9.30
2023-02-04T17:42:41.109Z,9.30
2023-02-04T17:45:10.584Z,9.30
2023-02-04T17:47:37.602Z,9.30
2023-02-04T17:50:06.249Z,9.30
2023-02-04T17:52:34.705Z,9.30
2023-02-04T17:55:02.018Z,9.30
2023-02-04T17:57:29.291Z,9.30
2023-02-04T17:59:56.163Z,9.20
2023-02-04T18:02:25.903Z,9.20
2023-02-04T18:04:54.794Z,9.20
2023-02-04T18:07:23.010Z,9.20
2023-02-04T18:09:51.358Z,9.20
2023-02-04T18:12:19.380Z,9.10
2023-02-04T18:14:46.800Z,9.10
2023-02-04T18:17:16.034Z,9.10
2023-02-04T18:19:44.991Z,9.10
2023-02-04T18:22:15.698Z,9.10
2023-02-04T18:24:44.991Z,9.00
2023-02-04T18:27:19.546Z,9.00
2023-02-04T18:29:48.819Z,9.00
2023-02-04T18:32:20.610Z,9.00
2023-02-04T18:34:49.569Z,9.00
2023-02-04T18:37:27.864Z,9.00
2023-02-04T18:39:57.686Z,9.00
2023-02-04T18:42:27.436Z,8.90
2023-02-04T18:44:56.734Z,8.90
2023-02-04T18:47:31.526Z,8.90
2023-02-04T18:49:59.997Z,8.90
2023-02-04T18:52:27.715Z,8.90
2023-02-04T18:54:55.681Z,8.90
2023-02-04T18:57:32.953Z,8.90
2023-02-04T19:00:18.759Z,8.80
2023-02-04T19:02:49.070Z,8.80
2023-02-04T19:05:26.335Z,8.80
2023-02-04T19:07:59.231Z,8.80
2023-02-04T19:10:29.105Z,8.80
2023-02-04T19:13:14.816Z,8.80
2023-02-04T19:15:41.747Z,8.80
2023-02-04T19:18:22.536Z,8.70
2023-02-04T19:20:50.028Z,8.70
2023-02-04T19:23:20.767Z,8.70
2023-02-04T19:25:49.049Z,8.70
2023-02-04T19:28:28.192Z,8.70
2023-02-04T19:31:02.136Z,8.70
2023-02-04T19:33:33.300Z,8.70
2023-02-04T19:36:11.345Z,8.70
2023-02-04T19:38:41.555Z,8.80
2023-02-04T19:41:28.215Z,8.60
2023-02-04T19:44:29.020Z,8.60
2023-02-04T19:46:57.446Z,8.60
2023-02-04T19:49:28.497Z,8.50
2023-02-04T19:51:57.466Z,8.50
2023-02-04T19:54:37.693Z,8.40
2023-02-04T19:57:20.906Z,8.40
2023-02-04T19:59:49.243Z,8.40
2023-02-04T20:02:34.467Z,8.30
2023-02-04T20:05:13.067Z,8.30
2023-02-04T20:07:40.058Z,8.20
2023-02-04T20:10:22.937Z,8.20
2023-02-04T20:12:51.368Z,8.20
2023-02-04T20:15:23.649Z,8.20
2023-02-04T20:17:51.477Z,8.20
2023-02-04T20:20:24.520Z,8.20
2023-02-04T20:22:53.684Z,8.20
2023-02-04T20:25:40.046Z,8.20
2023-02-04T20:28:39.916Z,8.20
2023-02-04T20:31:24.073Z,8.20
2023-02-04T20:33:53.494Z,8.20
2023-02-04T20:36:40.755Z,8.20
2023-02-04T20:39:29.298Z,8.20
2023-02-04T20:42:16.566Z,8.20
2023-02-04T20:44:43.871Z,8.20
2023-02-04T20:47:18.630Z,8.20
2023-02-04T20:49:55.241Z,8.20
2023-02-04T20:53:02.256Z,8.20
2023-02-04T20:55:31.164Z,8.10
2023-02-04T20:58:11.196Z,8.10
2023-02-04T21:00:40.557Z,8.10
2023-02-04T21:03:30.139Z,8.10
2023-02-04T21:05:58.971Z,8.10
2023-02-04T21:08:34.285Z,8.10
2023-02-04T21:11:02.646Z,8.10
2023-02-04T21:13:29.866Z,8.10
2023-02-04T21:15:57.326Z,8.10
2023-02-04T21:18:25.018Z,8.00
2023-02-04T21:20:53.553Z,8.00
2023-02-04T21:23:20.690Z,8.00
2023-02-04T21:25:48.051Z,8.00
2023-02-04T21:28:15.578Z,8.00
2023-02-04T21:30:42.860Z,8.00
2023-02-04T21:33:12.646Z,8.00
2023-02-04T21:35:40.416Z,8.00
2023-02-04T21:38:09.610Z,8.00
2023-02-04T21:40:37.943Z,8.00
2023-02-04T21:43:08.086Z,8.00
2023-02-04T21:45:36.450Z,8.00
2023-02-04T21:48:04.990Z,7.90
2023-02-04T21:50:33.052Z,7.90
2023-02-04T21:53:00.339Z,7.90
2023-02-04T21:55:29.177Z,7.90
2023-02-04T21:57:56.304Z,7.90
2023-02-04T22:00:24.428Z,7.90
2023-02-04T22:02:52.816Z,7.90
2023-02-04T22:05:20.461Z,7.90
2023-02-04T22:07:48.612Z,7.90
2023-02-04T22:10:18.181Z,7.90
2023-02-04T22:12:46.770Z,7.90
2023-02-04T22:15:14.061Z,7.90
2023-02-04T22:17:41.501Z,7.90
2023-02-04T22:20:09.892Z,7.90
2023-02-04T22:22:37.227Z,7.80
2023-02-04T22:25:04.967Z,7.80
2023-02-04T22:27:32.990Z,7.80
2023-02-04T22:30:03.270Z,7.80
2023-02-04T22:32:30.672Z,7.70
2023-02-04T22:34:57.916Z,7.70
2023-02-04T22:37:25.078Z,7.70
2023-02-04T22:39:52.255Z,7.60
2023-02-04T22:42:19.367Z,7.60
2023-02-04T22:44:47.285Z,7.60
2023-02-04T22:47:15.693Z,7.60
2023-02-04T22:49:42.769Z,7.60
2023-02-04T22:52:09.963Z,7.60
2023-02-04T22:54:38.046Z,7.60
2023-02-04T22:57:05.221Z,7.50
2023-02-04T22:59:32.500Z,7.50
2023-02-04T23:01:59.786Z,7.50
2023-02-04T23:04:28.278Z,7.50
2023-02-04T23:06:55.526Z,7.50
2023-02-04T23:09:23.323Z,7.40
2023-02-04T23:11:50.418Z,7.40
2023-02-04T23:14:17.544Z,7.40
2023-02-04T23:16:47.018Z,7.30
2023-02-04T23:19:14.121Z,7.30
2023-02-04T23:21:42.747Z,7.30
2023-02-04T23:24:10.337Z,7.30
2023-02-04T23:26:37.321Z,7.30
2023-02-04T23:29:05.009Z,7.20
2023-02-04T23:31:32.151Z,7.20
2023-02-04T23:33:59.256Z,7.20
2023-02-04T23:36:26.245Z,7.20
2023-02-04T23:38:54.677Z,7.20
2023-02-04T23:41:21.839Z,7.20
2023-02-04T23:43:48.959Z,7.20
2023-02-04T23:46:16.097Z,7.10
2023-02-04T23:48:43.172Z,7.10
2023-02-04T23:51:10.324Z,7.10
2023-02-04T23:53:37.444Z,7.10
2023-02-04T23:56:06.310Z,7.10
2023-02-04T23:58:33.348Z,7.10
